Aérodrome :
LOGIN :

S'inscrire | Disclaimer

   EN    FR    IT 

 










Légende :    VFR   VFR Marginal   IFR   IFR Intensif   IFR Très Intensif
Visi : 
Plafond : 
>= 8 km
>= 3000ft
5 à 8 km
1000 à 3000 ft
1500m à 5 km
500 à 1000 ft
800 à 1500m
200 à 500 ft
< 800m
< 200 ft
Symboles :   Orages  Brouillard  Fortes neiges  Fortes précipitations  Vent > 20 kt
SIGMETs :   Divers  Orages  Givrage  Turbulence  Onde Orograph.  Cendres Volcan.






- Altitude de l'aérodrome : 17 ft
- Code IATA : MPL


LFMT - Montpellier Méditerranée

DERNIER METAR :
  • 121200Z AUTO 01005KT 310V050 CAVOK 25/12 Q1029 BECMG 21010KT

METARs EXPIRÉS :
  • 121130Z AUTO 03007KT 350V080 CAVOK 24/10 Q1029 BECMG 21010KT
  • 121100Z AUTO 02007KT 330V060 CAVOK 23/10 Q1030 BECMG 21010KT
  • 121030Z AUTO 02010KT 340V040 CAVOK 23/09 Q1030 BECMG 21010KT
  • 121000Z AUTO 03010KT CAVOK 22/10 Q1030 BECMG 21010KT
  • 120930Z AUTO 02011KT CAVOK 21/08 Q1030 BECMG 21010KT
  • 120900Z AUTO 01011KT CAVOK 20/08 Q1030 NOSIG
  • 120830Z AUTO 36011KT CAVOK 20/08 Q1030 NOSIG
  • 120800Z AUTO 34007KT CAVOK 18/09 Q1030 NOSIG
  • 120730Z AUTO 33004KT CAVOK 16/09 Q1030 NOSIG

TAF AMD TAF LFMT
Valide du 12 à 09h jusqu'au 13 à 09h UTC


120945Z 1209/1309 02010KT CAVOK
BECMG 1211/1213 21010KT
BECMG 1218/1220 VRB03KT
ATIS : +33 4 67 13 11 70



MET'MAP, la Météo Aéronautique d'un coup d'oeil ! - Copyright ORBIFLY Décembre 2007 - Disclaimer

ORBIFLY MET'MAP TEAM :

Programmation & Développement : Alexandra Zaïnal
Sur une idée originale de : Baudouin d'Aumeries
Soutien technique & logistique : Manuel Goepfert
Assistance : Marc-Olivier Méhu




SOURCES & CREDITS :

   NOAA